Time;durP1;ratioP1;P1;durP2;ratioP2;P2;SDS_P1;SDS_P2;PMS_P1;PMS_P2;Temp;Humidity;BMP_temperature;BMP_pressure;BME280_temperature;BME280_humidity;BME280_pressure;Samples;Min_cycle;Max_cycle;Signal;HPM_P1;HPM_P2
2021/01/24 13:13:00;;;;;;;29.23;8.32;;;;;;;22.10;50.73;94270.94;1056333;27;20366;-64
2021/01/24 13:25:26;;;;;;;16.65;4.43;;;;;;;20.74;37.68;94283.38;1047992;28;20352;-70
2021/01/24 13:25:57;;;;;;;12.65;4.07;;;;;;;20.25;36.25;94281.28;1051801;28;20409;-68
2021/01/24 13:26:27;;;;;;;15.55;4.70;;;;;;;19.76;39.42;94287.13;1051830;28;20028;-70
2021/01/24 13:26:58;;;;;;;15.63;3.67;;;;;;;19.51;40.33;94289.22;1051936;28;20385;-68
2021/01/24 13:27:28;;;;;;;11.18;3.78;;;;;;;18.99;38.60;94292.97;1051642;28;20024;-76
2021/01/24 13:27:59;;;;;;;11.95;3.80;;;;;;;18.79;40.19;94295.88;1047451;28;20029;-72
2021/01/24 13:28:29;;;;;;;14.05;4.40;;;;;;;18.48;42.73;94292.00;1043570;28;20102;-69
2021/01/24 13:29:00;;;;;;;23.58;4.43;;;;;;;18.16;43.06;94293.00;1043568;28;20022;-68
2021/01/24 13:29:30;;;;;;;22.17;4.47;;;;;;;17.87;41.25;94300.19;1043372;28;20033;-78
2021/01/24 13:30:00;;;;;;;20.45;4.75;;;;;;;17.76;45.62;94289.19;1043842;28;20025;-69
2021/01/24 13:30:31;;;;;;;23.33;5.60;;;;;;;17.68;49.11;94298.09;1043528;28;20103;-69
2021/01/24 13:31:01;;;;;;;12.38;4.15;;;;;;;17.52;47.32;94289.97;1043461;28;20025;-69
2021/01/24 13:31:32;;;;;;;13.57;3.25;;;;;;;17.39;46.63;94298.31;1043514;28;20025;-69
2021/01/24 13:32:02;;;;;;;9.32;3.78;;;;;;;17.28;47.86;94306.00;1047033;28;20029;-71
2021/01/24 13:32:32;;;;;;;19.80;3.67;;;;;;;17.12;46.18;94292.53;1047310;28;20115;-70
2021/01/24 13:33:03;;;;;;;13.27;3.78;;;;;;;17.02;46.16;94302.88;1047728;28;20028;-77
2021/01/24 13:33:33;;;;;;;13.30;4.32;;;;;;;16.87;45.62;94297.06;1047645;28;20020;-76
2021/01/24 13:34:05;;;;;;;14.02;3.25;;;;;;;16.73;49.24;94301.94;1043202;28;20021;-69
2021/01/24 13:34:36;;;;;;;15.63;3.72;;;;;;;16.74;49.32;94298.16;1047653;28;20036;-72
2021/01/24 13:35:06;;;;;;;20.80;4.78;;;;;;;16.59;47.95;94296.06;1047777;28;20021;-72
2021/01/24 13:35:37;;;;;;;11.73;3.63;;;;;;;16.44;47.44;94296.69;1047592;28;20028;-79
2021/01/24 13:36:07;;;;;;;10.55;2.92;;;;;;;16.24;47.79;94290.28;1043108;28;20087;-68
2021/01/24 13:36:37;;;;;;;16.02;4.55;;;;;;;16.05;45.00;94288.06;1043485;28;20033;-73
2021/01/24 13:37:08;;;;;;;10.27;5.30;;;;;;;16.08;49.63;94306.88;1042876;28;20033;-70
2021/01/24 13:37:38;;;;;;;16.05;7.43;;;;;;;15.89;46.63;94303.91;1040599;28;20030;-65
2021/01/24 13:38:09;;;;;;;14.43;5.75;;;;;;;15.95;50.41;94304.47;1045819;28;20024;-66
2021/01/24 13:38:39;;;;;;;16.45;5.70;;;;;;;15.90;47.51;94307.34;1047855;28;20029;-67
2021/01/24 13:39:10;;;;;;;11.18;5.80;;;;;;;15.92;52.04;94297.13;1047338;28;20083;-67
2021/01/24 13:39:40;;;;;;;17.85;6.18;;;;;;;15.89;50.68;94297.78;1047514;28;20059;-67
2021/01/24 13:40:11;;;;;;;16.75;5.53;;;;;;;15.83;49.39;94299.06;1047366;28;20512;-66
2021/01/24 13:40:42;;;;;;;13.57;6.22;;;;;;;15.83;49.50;94304.41;1047568;28;20107;-67
2021/01/24 13:41:12;;;;;;;13.18;4.22;;;;;;;15.74;49.68;94291.88;1047862;28;20025;-68
2021/01/24 13:41:43;;;;;;;16.08;5.45;;;;;;;15.74;48.78;94305.22;1047640;28;20029;-72
2021/01/24 13:42:13;;;;;;;10.85;5.05;;;;;;;15.72;50.95;94296.78;1045296;28;20028;-75
2021/01/24 13:42:44;;;;;;;14.93;5.22;;;;;;;15.77;52.21;94306.50;1045856;28;20056;-73
2021/01/24 13:43:14;;;;;;;14.38;4.90;;;;;;;15.64;49.11;94305.63;1047708;28;20377;-72
2021/01/24 13:43:44;;;;;;;12.80;5.35;;;;;;;15.59;48.81;94307.66;1047543;28;20024;-72
2021/01/24 13:44:15;;;;;;;9.05;5.03;;;;;;;15.63;49.87;94306.75;1047279;28;20028;-72
2021/01/24 13:44:45;;;;;;;8.13;4.15;;;;;;;15.58;50.24;94300.75;1047669;28;20032;-70
2021/01/24 13:45:16;;;;;;;16.50;5.25;;;;;;;15.57;51.47;94301.88;1047587;28;20021;-69
2021/01/24 13:45:46;;;;;;;11.40;5.05;;;;;;;15.60;50.08;94302.03;1047665;28;20063;-69
2021/01/24 13:46:17;;;;;;;9.93;4.65;;;;;;;15.60;52.31;94302.03;1047520;28;20473;-69
2021/01/24 13:46:47;;;;;;;14.63;4.53;;;;;;;15.59;51.01;94297.75;1047593;28;20016;-66
2021/01/24 13:47:18;;;;;;;11.00;4.53;;;;;;;15.59;49.83;94302.31;1047715;28;20028;-72
2021/01/24 13:47:48;;;;;;;10.43;4.60;;;;;;;15.49;50.00;94312.25;1047953;28;20024;-73
2021/01/24 13:48:19;;;;;;;12.45;4.40;;;;;;;15.48;51.38;94310.69;1044987;28;20025;-72
2021/01/24 13:48:49;;;;;;;9.48;4.07;;;;;;;15.34;46.20;94304.03;1039346;28;20029;-72
2021/01/24 13:49:19;;;;;;;12.70;4.28;;;;;;;15.40;50.69;94316.88;1039413;28;20029;-72
2021/01/24 13:49:50;;;;;;;9.15;4.25;;;;;;;15.44;50.43;94314.34;1039282;28;20041;-72
2021/01/24 13:50:20;;;;;;;10.07;4.53;;;;;;;15.43;51.69;94320.78;1042509;28;20489;-71
2021/01/24 13:50:51;;;;;;;10.05;4.07;;;;;;;15.46;52.37;94320.16;1047570;28;20033;-71
2021/01/24 13:51:21;;;;;;;9.88;4.47;;;;;;;15.37;50.02;94317.50;1047715;28;20481;-72
2021/01/24 13:51:52;;;;;;;13.75;4.22;;;;;;;15.40;52.69;94313.44;1047967;28;20048;-72
2021/01/24 13:52:22;;;;;;;9.70;4.45;;;;;;;15.37;51.21;94316.72;1044588;28;20025;-72
2021/01/24 13:52:53;;;;;;;11.57;4.03;;;;;;;15.39;52.90;94314.50;1043649;28;20021;-72
2021/01/24 13:53:26;;;;;;;6.90;3.88;;;;;;;15.35;51.88;94318.94;1043566;28;20025;-72
2021/01/24 13:53:57;;;;;;;10.35;3.85;;;;;;;15.28;52.43;94308.00;1043785;28;20083;-67
2021/01/24 13:54:27;;;;;;;7.75;3.75;;;;;;;15.37;53.39;94324.72;1047778;28;20074;-68
2021/01/24 13:54:57;;;;;;;8.10;4.38;;;;;;;15.40;52.64;94324.91;1047797;28;20099;-68
2021/01/24 13:55:28;;;;;;;8.85;3.55;;;;;;;15.27;48.40;94317.88;1047924;28;20024;-67
2021/01/24 13:55:59;;;;;;;8.15;4.10;;;;;;;15.41;52.05;94323.78;1047754;28;20469;-68
2021/01/24 13:56:30;;;;;;;5.65;3.78;;;;;;;15.40;50.07;94324.91;1043850;28;20055;-67
2021/01/24 13:57:00;;;;;;;9.18;3.67;;;;;;;15.36;50.57;94325.84;1043230;28;20032;-69
2021/01/24 13:57:31;;;;;;;9.00;4.03;;;;;;;15.34;52.79;94322.72;1043689;28;20036;-69
2021/01/24 13:58:01;;;;;;;9.32;3.85;;;;;;;15.34;50.70;94328.06;1043106;28;20025;-70
2021/01/24 13:58:32;;;;;;;7.90;3.63;;;;;;;15.34;52.45;94320.84;1043416;28;20033;-70
2021/01/24 13:59:02;;;;;;;8.23;3.88;;;;;;;15.31;50.57;94321.47;1043089;28;20021;-73
2021/01/24 13:59:33;;;;;;;8.52;3.97;;;;;;;15.34;52.24;94328.06;1043526;28;20021;-73
2021/01/24 14:00:04;;;;;;;6.43;3.60;;;;;;;15.33;52.23;94329.94;1047561;28;20038;-72
2021/01/24 14:00:34;;;;;;;8.38;3.80;;;;;;;15.33;51.07;94321.94;1047795;28;20052;-72
2021/01/24 14:01:05;;;;;;;8.30;3.83;;;;;;;15.25;48.39;94329.97;1047750;28;20040;-71
2021/01/24 14:01:35;;;;;;;6.45;3.15;;;;;;;15.20;51.07;94318.38;1047891;28;20032;-73
2021/01/24 14:02:06;;;;;;;6.95;3.78;;;;;;;15.21;51.34;94324.50;1046342;28;20028;-66
2021/01/24 14:02:37;;;;;;;7.35;3.80;;;;;;;15.19;50.67;94327.50;1043376;28;20374;-66
2021/01/24 14:03:07;;;;;;;9.60;3.90;;;;;;;15.17;49.68;94319.03;1043357;28;20360;-68
2021/01/24 14:03:38;;;;;;;7.55;4.20;;;;;;;15.32;54.06;94330.25;1043430;28;20032;-69
2021/01/24 14:04:08;;;;;;;7.82;3.92;;;;;;;15.30;52.60;94327.13;1045002;28;20104;-72
2021/01/24 14:04:38;;;;;;;6.90;3.72;;;;;;;15.26;50.87;94329.66;1045225;28;20036;-68
2021/01/24 14:05:09;;;;;;;9.55;3.92;;;;;;;15.26;53.65;94329.66;1043546;28;20018;-71
2021/01/24 14:05:40;;;;;;;7.57;3.47;;;;;;;15.24;51.01;94325.75;1047248;28;20013;-71
2021/01/24 14:06:10;;;;;;;8.57;3.60;;;;;;;15.26;52.16;94326.97;1047785;28;20043;-68
2021/01/24 14:06:41;;;;;;;18.08;4.05;;;;;;;15.17;49.42;94324.38;1047950;28;20019;-69
2021/01/24 14:07:11;;;;;;;7.38;3.25;;;;;;;15.22;52.80;94320.72;1047730;28;20087;-68
2021/01/24 14:07:41;;;;;;;7.35;2.92;;;;;;;15.14;50.59;94327.66;1047899;28;20035;-70
2021/01/24 14:08:12;;;;;;;13.05;4.25;;;;;;;15.10;48.67;94328.63;1045783;28;20021;-70
2021/01/24 14:08:42;;;;;;;10.27;4.38;;;;;;;15.15;56.33;94329.25;1043576;28;20021;-70
2021/01/24 14:09:13;;;;;;;7.70;3.80;;;;;;;14.99;48.80;94322.84;1043618;28;20021;-70
2021/01/24 14:09:43;;;;;;;9.77;4.22;;;;;;;15.07;51.08;94322.06;1043731;28;20029;-70
2021/01/24 14:10:14;;;;;;;8.10;4.07;;;;;;;15.00;51.76;94335.09;1045756;28;20025;-71
2021/01/24 14:10:44;;;;;;;8.27;4.55;;;;;;;15.15;52.55;94331.09;1047735;28;20020;-67
2021/01/24 14:11:15;;;;;;;12.82;5.53;;;;;;;15.14;52.13;94329.53;1047725;28;20033;-67
2021/01/24 14:11:45;;;;;;;11.30;5.57;;;;;;;15.03;51.05;94304.31;1047180;28;20017;-67
2021/01/24 14:12:16;;;;;;;13.43;6.75;;;;;;;15.31;60.21;94324.16;1044899;28;20025;-68
2021/01/24 14:12:46;;;;;;;7.93;5.65;;;;;;;15.28;53.64;94326.69;1043423;28;20482;-68
2021/01/24 14:13:17;;;;;;;10.88;6.03;;;;;;;15.25;55.09;94324.63;1043306;28;20461;-71
2021/01/24 14:13:47;;;;;;;11.90;5.40;;;;;;;15.19;51.71;94332.84;1043662;28;20075;-70
2021/01/24 14:14:17;;;;;;;7.72;5.50;;;;;;;15.21;53.58;94325.28;1045921;28;20143;-71
2021/01/24 14:14:48;;;;;;;9.07;5.20;;;;;;;15.35;54.33;94330.41;1043311;28;20028;-71
2021/01/24 14:15:18;;;;;;;10.63;5.63;;;;;;;15.40;56.70;94326.78;1043332;28;20017;-68
2021/01/24 14:15:49;;;;;;;11.05;5.05;;;;;;;15.47;57.77;94316.38;1043400;28;20406;-68
2021/01/24 14:16:19;;;;;;;9.70;5.32;;;;;;;15.60;58.85;94326.06;1044480;28;20017;-68
2021/01/24 14:16:50;;;;;;;10.55;5.30;;;;;;;15.58;55.28;94317.56;1043676;28;20502;-68
2021/01/24 14:17:20;;;;;;;7.07;4.30;;;;;;;15.63;55.57;94325.44;1043717;28;20040;-69
2021/01/24 14:17:51;;;;;;;10.95;4.88;;;;;;;15.78;54.12;94322.19;1043586;28;20653;-68
2021/01/24 14:18:21;;;;;;;11.05;4.55;;;;;;;15.70;52.06;94317.69;1046824;28;20466;-68
2021/01/24 14:18:51;;;;;;;8.73;4.07;;;;;;;15.76;55.92;94312.94;1047820;28;20017;-68
2021/01/24 14:19:22;;;;;;;9.85;4.50;;;;;;;15.95;61.29;94329.28;1047799;28;20021;-71
2021/01/24 14:19:52;;;;;;;11.70;4.55;;;;;;;15.96;53.55;94322.84;1047716;28;20033;-71
2021/01/24 14:20:23;;;;;;;9.52;4.40;;;;;;;16.01;54.30;94317.31;1044492;28;20013;-72
2021/01/24 14:20:54;;;;;;;8.20;4.13;;;;;;;15.99;54.20;94324.09;1047610;28;20028;-71
2021/01/24 14:21:24;;;;;;;10.63;4.85;;;;;;;15.95;53.44;94326.63;1047818;28;20009;-72
2021/01/24 14:21:56;;;;;;;10.07;4.32;;;;;;;15.95;52.03;94323.94;1047506;28;20039;-71
2021/01/24 14:22:27;;;;;;;9.63;3.85;;;;;;;16.01;56.66;94336.03;1047324;28;20112;-69
2021/01/24 14:22:58;;;;;;;6.47;3.70;;;;;;;15.96;53.34;94322.06;1043349;28;20088;-69
2021/01/24 14:23:28;;;;;;;7.75;4.28;;;;;;;15.98;52.21;94323.31;1043384;28;20021;-74
2021/01/24 14:23:58;;;;;;;7.32;5.00;;;;;;;15.94;51.74;94324.28;1043027;28;20029;-75
2021/01/24 14:24:29;;;;;;;7.72;4.75;;;;;;;16.08;53.80;94330.94;1047536;28;20032;-76
2021/01/24 14:24:59;;;;;;;8.45;4.57;;;;;;;16.05;52.95;94328.13;1047123;28;20029;-74
2021/01/24 14:25:30;;;;;;;9.88;3.33;;;;;;;16.03;52.53;94333.03;1047478;28;20024;-75
2021/01/24 14:26:00;;;;;;;8.73;4.30;;;;;;;16.05;55.53;94322.78;1042756;28;20024;-75
2021/01/24 14:26:30;;;;;;;11.60;4.60;;;;;;;16.09;54.69;94323.69;1039339;28;20022;-69
2021/01/24 14:27:01;;;;;;;8.07;3.92;;;;;;;16.00;52.09;94328.34;1043292;28;20013;-71
2021/01/24 14:27:31;;;;;;;8.50;3.83;;;;;;;15.98;51.80;94322.50;1043360;28;20463;-74
2021/01/24 14:28:02;;;;;;;6.43;3.70;;;;;;;16.09;54.16;94329.81;1044047;28;20155;-75
2021/01/24 14:28:32;;;;;;;6.80;4.10;;;;;;;15.99;50.55;94321.44;1047823;28;20539;-74
2021/01/24 14:29:03;;;;;;;7.00;3.83;;;;;;;15.91;51.31;94325.72;1047741;28;20017;-74
2021/01/24 14:29:33;;;;;;;7.70;4.15;;;;;;;15.99;54.40;94326.78;1047833;28;20190;-74
2021/01/24 14:30:04;;;;;;;8.05;3.97;;;;;;;15.96;52.66;94322.06;1046751;28;20409;-73
2021/01/24 14:30:34;;;;;;;5.95;3.60;;;;;;;15.99;53.18;94322.22;1043683;28;20370;-74
2021/01/24 14:31:06;;;;;;;6.68;3.72;;;;;;;15.96;50.65;94322.06;1045062;28;20024;-70
2021/01/24 14:31:38;;;;;;;5.90;3.10;;;;;;;15.89;51.55;94322.59;1047227;28;20028;-76
2021/01/24 14:32:08;;;;;;;7.50;3.33;;;;;;;15.90;51.05;94328.72;1043050;28;20101;-69
2021/01/24 14:32:39;;;;;;;6.00;3.20;;;;;;;15.91;52.20;94333.72;1043386;28;20024;-75
2021/01/24 14:33:09;;;;;;;7.05;3.50;;;;;;;15.96;52.87;94335.41;1043579;28;20021;-69
2021/01/24 14:33:40;;;;;;;7.90;3.25;;;;;;;16.02;53.45;94334.13;1047187;28;20059;-74
2021/01/24 14:34:10;;;;;;;5.22;2.65;;;;;;;15.92;51.57;94318.47;1047329;28;20029;-73
2021/01/24 14:34:41;;;;;;;7.80;3.90;;;;;;;15.89;51.95;94324.50;1047482;28;20028;-72
2021/01/24 14:35:11;;;;;;;7.47;2.97;;;;;;;15.81;50.57;94328.00;1047568;28;20044;-72
2021/01/24 14:35:43;;;;;;;5.95;3.38;;;;;;;15.79;51.17;94325.66;1047788;28;20104;-72
2021/01/24 14:36:13;;;;;;;6.97;3.70;;;;;;;15.70;52.91;94315.00;1047152;28;20067;-72
2021/01/24 14:36:44;;;;;;;5.82;3.30;;;;;;;15.86;55.37;94327.78;1045115;28;20055;-66
2021/01/24 14:37:14;;;;;;;6.97;3.20;;;;;;;15.86;50.58;94322.44;1042815;28;20112;-75
2021/01/24 14:37:45;;;;;;;5.53;2.97;;;;;;;15.88;53.90;94331.72;1044529;28;20025;-72
2021/01/24 14:38:16;;;;;;;7.15;3.10;;;;;;;15.88;52.40;94330.94;1044863;28;20037;-68
2021/01/24 14:38:46;;;;;;;7.18;3.00;;;;;;;15.77;47.47;94327.88;1044617;28;20450;-75
2021/01/24 14:39:17;;;;;;;5.07;3.10;;;;;;;15.80;50.73;94319.19;1044617;28;20115;-71
2021/01/24 14:39:47;;;;;;;7.47;3.15;;;;;;;15.88;54.87;94325.59;1044581;28;20035;-71
2021/01/24 14:40:18;;;;;;;3.92;2.55;;;;;;;15.86;51.80;94325.13;1044472;28;20028;-69
2021/01/24 14:40:48;;;;;;;5.95;2.75;;;;;;;15.78;46.95;94327.53;1044662;28;20080;-70
2021/01/24 14:41:20;;;;;;;6.03;3.13;;;;;;;15.80;50.69;94327.22;1044802;28;20400;-70
2021/01/24 14:41:51;;;;;;;6.07;3.08;;;;;;;15.81;52.66;94331.44;1045045;28;20020;-70
2021/01/24 14:42:21;;;;;;;7.40;3.05;;;;;;;15.84;53.28;94332.66;1044850;28;20454;-66
2021/01/24 14:42:54;;;;;;;6.13;2.65;;;;;;;15.86;51.67;94338.47;1044769;28;20030;-70
2021/01/24 14:43:24;;;;;;;6.20;2.53;;;;;;;15.72;49.43;94331.47;1044871;28;20025;-69
2021/01/24 14:43:55;;;;;;;6.32;2.33;;;;;;;15.74;51.57;94331.94;1044788;28;20025;-70
2021/01/24 14:44:25;;;;;;;3.97;2.28;;;;;;;15.69;52.57;94334.03;1044447;28;20028;-71
2021/01/24 14:44:55;;;;;;;5.05;2.35;;;;;;;15.73;51.49;94335.72;1040455;28;20048;-71
2021/01/24 14:45:26;;;;;;;6.15;2.40;;;;;;;15.76;51.31;94337.75;1038768;28;20414;-70
2021/01/24 14:45:56;;;;;;;4.65;2.88;;;;;;;15.72;52.38;94339.50;1040273;28;20536;-70
2021/01/24 14:46:27;;;;;;;7.45;2.40;;;;;;;15.75;51.84;94333.53;1043925;28;20082;-70
2021/01/24 14:46:57;;;;;;;5.85;2.20;;;;;;;15.68;50.08;94335.91;1044945;28;20083;-70
2021/01/24 14:47:28;;;;;;;5.05;2.38;;;;;;;15.72;52.46;94338.72;1044992;28;20021;-70
2021/01/24 14:47:58;;;;;;;6.10;2.78;;;;;;;15.74;50.34;94337.28;1045065;28;20032;-71
2021/01/24 14:48:29;;;;;;;3.33;2.08;;;;;;;15.65;51.65;94325.09;1045018;28;20032;-71
2021/01/24 14:48:59;;;;;;;5.75;2.15;;;;;;;15.71;52.16;94343.28;1044460;28;20494;-72
2021/01/24 14:49:30;;;;;;;4.47;2.30;;;;;;;15.68;51.71;94340.47;1044546;28;20071;-73
2021/01/24 14:50:00;;;;;;;7.90;2.55;;;;;;;15.68;50.03;94338.59;1044765;28;20037;-66
2021/01/24 14:50:31;;;;;;;5.30;2.55;;;;;;;15.62;47.21;94339.88;1044669;28;20024;-67
2021/01/24 14:51:01;;;;;;;4.70;2.03;;;;;;;15.69;51.46;94339.38;1044855;28;20032;-66
2021/01/24 14:51:33;;;;;;;5.43;2.42;;;;;;;15.60;48.97;94335.97;1044924;28;20417;-67
2021/01/24 14:52:04;;;;;;;4.55;2.20;;;;;;;15.60;51.91;94334.06;1045057;28;20103;-66
2021/01/24 14:52:34;;;;;;;3.70;1.88;;;;;;;15.60;52.67;94339.41;1045030;28;20359;-67
2021/01/24 14:53:05;;;;;;;4.03;2.20;;;;;;;15.59;48.92;94339.72;1044642;28;20041;-68
2021/01/24 14:53:35;;;;;;;4.88;2.60;;;;;;;15.58;51.62;94336.25;1044737;28;20033;-66
2021/01/24 14:54:06;;;;;;;8.15;2.42;;;;;;;15.54;47.42;94340.69;1044725;28;20487;-67
2021/01/24 14:54:36;;;;;;;16.45;3.30;;;;;;;15.58;54.51;94333.59;1044468;28;20025;-67
2021/01/24 14:55:07;;;;;;;34.63;4.80;;;;;;;15.65;53.62;94339.25;1043084;28;20125;-67
2021/01/24 14:55:38;;;;;;;14.82;3.88;;;;;;;15.65;51.28;94333.13;1044869;28;20013;-65
2021/01/24 14:56:08;;;;;;;11.68;3.00;;;;;;;15.59;51.14;94332.47;1044671;28;20029;-68
2021/01/24 14:56:39;;;;;;;10.23;2.25;;;;;;;15.57;53.25;94334.69;1044770;28;20079;-69
2021/01/24 14:57:09;;;;;;;7.10;2.60;;;;;;;15.50;51.66;94337.06;1044626;28;20051;-69
2021/01/24 14:57:40;;;;;;;5.53;2.35;;;;;;;15.58;50.45;94343.47;1044564;28;20009;-66
2021/01/24 14:58:10;;;;;;;7.53;2.65;;;;;;;15.59;51.51;94340.50;1044903;28;20091;-67
2021/01/24 14:58:40;;;;;;;8.88;2.35;;;;;;;15.49;49.48;94336.28;1044988;28;20126;-67
2021/01/24 14:59:11;;;;;;;11.05;2.78;;;;;;;15.46;48.00;94330.81;1044925;28;20029;-67
2021/01/24 14:59:41;;;;;;;10.70;2.67;;;;;;;15.55;50.88;94344.91;1044930;28;20051;-67
2021/01/24 15:00:12;;;;;;;11.43;2.70;;;;;;;15.54;50.41;94335.34;1044615;28;20124;-66
2021/01/24 15:00:43;;;;;;;11.55;3.08;;;;;;;15.57;52.13;94334.69;1044636;28;20056;-69
2021/01/24 15:01:13;;;;;;;14.43;3.22;;;;;;;15.58;52.72;94328.25;1044391;28;20036;-70
2021/01/24 15:01:44;;;;;;;14.13;3.28;;;;;;;15.57;53.34;94332.03;1040397;28;20038;-68
2021/01/24 15:02:14;;;;;;;13.18;2.55;;;;;;;15.59;53.59;94327.13;1040483;28;20034;-71
2021/01/24 15:02:44;;;;;;;13.35;3.13;;;;;;;15.60;50.90;94333.28;1040291;28;20057;-71
2021/01/24 15:03:15;;;;;;;9.82;3.47;;;;;;;15.63;50.95;94330.00;1040263;28;20091;-70
2021/01/24 15:03:45;;;;;;;9.68;2.47;;;;;;;15.55;51.78;94331.56;1044007;28;20047;-69
2021/01/24 15:04:16;;;;;;;11.63;2.85;;;;;;;15.52;50.03;94321.53;1042839;28;20412;-69
2021/01/24 15:04:46;;;;;;;7.20;2.20;;;;;;;15.50;48.85;94326.41;1044208;28;20020;-70
2021/01/24 15:05:16;;;;;;;12.45;2.88;;;;;;;15.54;51.91;94335.34;1043894;28;20399;-71
2021/01/24 15:05:47;;;;;;;11.50;3.00;;;;;;;15.50;49.61;94337.06;1043777;28;20470;-70
2021/01/24 15:06:17;;;;;;;8.82;2.38;;;;;;;15.44;47.92;94336.50;1044476;28;20032;-67
2021/01/24 15:06:48;;;;;;;9.30;2.58;;;;;;;15.32;48.95;94327.59;1044312;28;20020;-75
2021/01/24 15:07:19;;;;;;;7.85;2.38;;;;;;;15.35;47.95;94340.28;1044824;28;20071;-71
2021/01/24 15:07:50;;;;;;;5.30;2.70;;;;;;;15.35;50.68;94341.06;1044385;28;20478;-68
2021/01/24 15:08:20;;;;;;;8.82;3.17;;;;;;;15.21;47.36;94338.63;1044542;28;20021;-70
2021/01/24 15:08:50;;;;;;;9.32;3.17;;;;;;;15.27;51.02;94339.22;1044256;28;20025;-67
2021/01/24 15:09:21;;;;;;;8.82;2.70;;;;;;;15.29;51.16;94342.38;1044541;28;20099;-68
2021/01/24 15:09:51;;;;;;;5.22;2.25;;;;;;;15.24;49.77;94349.75;1039996;28;20053;-68
2021/01/24 15:10:22;;;;;;;7.78;2.70;;;;;;;15.07;46.34;94351.41;1040500;28;20475;-66
2021/01/24 15:10:52;;;;;;;3.83;2.50;;;;;;;15.09;48.73;94343.84;1044437;28;20017;-71
2021/01/24 15:11:22;;;;;;;7.82;3.15;;;;;;;14.96;50.28;94328.84;1041999;28;20021;-66
2021/01/24 15:11:53;;;;;;;11.73;2.83;;;;;;;15.00;50.45;94334.31;1044113;28;20478;-68
2021/01/24 15:12:23;;;;;;;7.38;2.90;;;;;;;15.09;53.26;94349.19;1044450;28;20029;-71
2021/01/24 15:12:54;;;;;;;7.57;2.95;;;;;;;15.19;54.59;94348.84;1044376;28;20021;-72
2021/01/24 15:13:24;;;;;;;12.63;3.35;;;;;;;15.18;53.47;94352.63;1044324;28;20029;-73
2021/01/24 15:13:54;;;;;;;11.40;3.25;;;;;;;15.29;59.31;94341.59;1044157;28;20017;-69
2021/01/24 15:14:25;;;;;;;9.35;2.72;;;;;;;15.26;54.84;94351.00;1044786;28;20067;-70
2021/01/24 15:14:57;;;;;;;16.35;2.90;;;;;;;15.28;53.91;94356.03;1044081;28;20246;-70
2021/01/24 15:15:27;;;;;;;16.77;3.47;;;;;;;15.31;58.50;94350.06;1044369;28;20458;-68
2021/01/24 15:15:58;;;;;;;15.82;2.80;;;;;;;15.25;52.58;94346.75;1044201;28;20055;-70
2021/01/24 15:16:28;;;;;;;9.13;2.47;;;;;;;15.24;51.52;94336.41;1044473;28;20037;-69
2021/01/24 15:16:59;;;;;;;6.63;2.03;;;;;;;15.19;51.90;94346.16;1044105;28;20029;-72
2021/01/24 15:17:29;;;;;;;9.40;2.97;;;;;;;15.15;54.80;94349.78;1044117;28;20029;-68
2021/01/24 15:17:59;;;;;;;6.25;2.42;;;;;;;15.27;55.36;94343.78;1043783;28;20017;-69
2021/01/24 15:18:30;;;;;;;7.97;2.72;;;;;;;15.10;50.29;94353.41;1044158;28;20025;-68
2021/01/24 15:19:00;;;;;;;9.73;2.60;;;;;;;15.01;49.72;94351.88;1043808;28;20092;-69
2021/01/24 15:19:31;;;;;;;7.78;2.08;;;;;;;15.05;53.57;94353.59;1044283;28;20443;-69
2021/01/24 15:20:06;;;;;;;6.00;2.20;;;;;;;14.96;50.37;94360.06;1043795;28;20024;-69
2021/01/24 15:20:36;;;;;;;6.13;2.40;;;;;;;14.97;52.77;94357.06;1044288;28;20025;-69
2021/01/24 15:21:07;;;;;;;4.65;2.67;;;;;;;14.90;48.63;94356.75;1043942;28;20216;-69
2021/01/24 15:21:37;;;;;;;5.95;2.45;;;;;;;14.91;50.38;94355.66;1044087;28;20025;-69
2021/01/24 15:22:08;;;;;;;5.28;2.40;;;;;;;14.85;50.50;94343.63;1043843;28;20470;-69
2021/01/24 15:22:38;;;;;;;8.00;2.38;;;;;;;14.79;51.79;94361.66;1044062;28;20501;-70
2021/01/24 15:23:09;;;;;;;5.97;2.88;;;;;;;14.75;50.56;94357.28;1044313;28;20348;-70
2021/01/24 15:23:39;;;;;;;4.90;2.58;;;;;;;14.80;53.76;94359.75;1044269;28;20021;-69
2021/01/24 15:24:10;;;;;;;4.75;2.83;;;;;;;14.80;55.12;94359.75;1044428;28;20035;-70
2021/01/24 15:24:41;;;;;;;12.50;2.90;;;;;;;14.70;48.92;94354.78;1044086;28;20060;-70
2021/01/24 15:25:12;;;;;;;6.50;2.05;;;;;;;14.64;53.72;94362.16;1043843;28;20024;-69
2021/01/24 15:25:42;;;;;;;6.13;2.28;;;;;;;14.63;49.79;94350.72;1044330;28;20025;-68
2021/01/24 15:26:13;;;;;;;10.95;2.60;;;;;;;14.62;51.71;94359.03;1043949;28;20135;-69
2021/01/24 15:26:43;;;;;;;6.57;2.63;;;;;;;14.60;52.12;94359.34;1044414;28;20013;-69
2021/01/24 15:27:14;;;;;;;7.55;2.72;;;;;;;14.70;54.47;94360.13;1044454;28;20021;-69
2021/01/24 15:27:44;;;;;;;5.90;2.35;;;;;;;14.69;53.06;94367.34;1044434;28;20021;-69
2021/01/24 15:28:15;;;;;;;5.90;2.45;;;;;;;14.66;53.69;94362.63;1044399;28;20390;-69
2021/01/24 15:28:45;;;;;;;7.93;2.53;;;;;;;14.61;50.59;94360.91;1044285;28;20021;-69
2021/01/24 15:29:15;;;;;;;7.10;2.72;;;;;;;14.69;51.62;94361.22;1044547;28;20025;-70
2021/01/24 15:29:46;;;;;;;6.93;2.05;;;;;;;14.58;53.74;94358.09;1041864;28;20021;-69
2021/01/24 15:30:17;;;;;;;8.15;2.67;;;;;;;14.70;53.02;94362.78;1044547;28;20013;-70
2021/01/24 15:30:47;;;;;;;5.18;2.35;;;;;;;14.66;49.71;94351.94;1044315;28;20021;-69
2021/01/24 15:31:18;;;;;;;5.38;2.33;;;;;;;14.76;51.25;94367.63;1044421;28;20021;-69
2021/01/24 15:31:48;;;;;;;4.72;1.77;;;;;;;14.70;52.74;94368.91;1044297;28;20679;-69
2021/01/24 15:32:19;;;;;;;5.53;2.20;;;;;;;14.65;50.88;94360.25;1044470;28;20021;-69
2021/01/24 15:32:50;;;;;;;6.95;2.60;;;;;;;14.64;49.50;94364.81;1044301;28;20018;-69
2021/01/24 15:33:21;;;;;;;6.82;2.25;;;;;;;14.65;51.00;94360.25;1044080;28;20005;-69
2021/01/24 15:33:52;;;;;;;4.45;1.70;;;;;;;14.53;49.26;94361.69;1040113;28;20022;-69
2021/01/24 15:34:23;;;;;;;10.73;2.92;;;;;;;14.52;49.52;94364.66;1039198;28;20522;-69
2021/01/24 15:34:53;;;;;;;6.15;2.83;;;;;;;14.60;48.16;94362.00;1040093;28;20033;-69
2021/01/24 15:35:27;;;;;;;7.45;2.25;;;;;;;14.66;51.38;94357.28;1043915;28;20076;-69
2021/01/24 15:35:57;;;;;;;6.03;2.45;;;;;;;14.60;51.93;94369.22;1044171;28;20029;-75
2021/01/24 15:36:31;;;;;;;10.25;2.65;;;;;;;14.54;48.81;94371.25;1044230;28;20013;-74
2021/01/24 15:37:01;;;;;;;6.75;2.55;;;;;;;14.75;56.74;94370.59;1043973;28;20571;-74
2021/01/24 15:37:32;;;;;;;9.02;2.45;;;;;;;14.82;56.95;94360.25;1044429;28;20071;-72
2021/01/24 15:38:02;;;;;;;7.05;2.22;;;;;;;14.90;53.89;94367.44;1044513;28;20041;-74
2021/01/24 15:39:02;;;;;;;8.05;2.58;;;;;;;15.01;56.81;94362.53;1055670;27;20362;-80
2021/01/24 15:39:33;;;;;;;7.43;2.08;;;;;;;15.02;56.25;94370.22;1055871;28;20042;-79
2021/01/24 15:40:04;;;;;;;5.82;2.28;;;;;;;14.84;48.49;94368.72;1056000;28;20023;-80
2021/01/24 15:40:34;;;;;;;9.48;2.35;;;;;;;14.75;55.82;94362.59;1056566;28;20066;-78
2021/01/24 15:41:28;;;;;;;8.52;2.30;;;;;;;14.74;52.39;94363.72;1048380;28;20111;-80
2021/01/24 15:41:58;;;;;;;6.63;2.22;;;;;;;14.86;56.92;94363.84;1047691;28;20033;-80
2021/01/24 15:42:28;;;;;;;7.78;2.30;;;;;;;14.82;55.23;94365.59;1047699;28;20025;-81
2021/01/24 15:42:59;;;;;;;7.50;1.85;;;;;;;14.83;55.15;94361.81;1047433;28;20013;-80
2021/01/24 15:43:29;;;;;;;9.77;3.30;;;;;;;14.62;48.48;94364.34;1047250;28;20024;-81
2021/01/24 15:44:03;;;;;;;8.57;2.40;;;;;;;14.66;50.77;94356.50;1047218;28;20017;-81
2021/01/24 15:44:33;;;;;;;8.32;2.25;;;;;;;14.75;51.63;94375.94;1047395;28;20019;-81
2021/01/24 15:45:04;;;;;;;7.00;2.63;;;;;;;14.76;52.90;94369.50;1047504;28;20024;-81
2021/01/24 15:45:35;;;;;;;4.28;1.65;;;;;;;14.62;51.69;94367.81;1051397;28;20020;-80
2021/01/24 15:46:05;;;;;;;8.88;2.05;;;;;;;14.60;52.88;94364.66;1051986;28;20529;-80
2021/01/24 15:46:37;;;;;;;6.60;2.35;;;;;;;14.62;53.66;94367.03;1052967;28;20029;-81
2021/01/24 15:47:08;;;;;;;8.52;2.33;;;;;;;14.61;51.95;94376.91;1048323;28;20027;-80
2021/01/24 15:47:38;;;;;;;6.15;2.70;;;;;;;14.56;53.70;94358.41;1049097;28;20032;-80
2021/01/24 15:48:09;;;;;;;5.57;2.45;;;;;;;14.56;56.10;94363.75;1047929;28;20374;-81
2021/01/24 15:48:39;;;;;;;5.45;2.03;;;;;;;14.54;50.29;94357.94;1045790;28;20482;-81
2021/01/24 15:49:10;;;;;;;6.60;1.83;;;;;;;14.59;53.93;94363.09;1045823;28;20028;-80